Time;durP1;ratioP1;P1;durP2;ratioP2;P2;SDS_P1;SDS_P2;PMS_P1;PMS_P2;Temp;Humidity;BMP_temperature;BMP_pressure;BME280_temperature;BME280_humidity;BME280_pressure;Samples;Min_cycle;Max_cycle;Signal;HPM_P1;HPM_P2
2021/10/29 00:02:10;;;;;;;;;;;;;;;9.48;100.00;100422.63;1634213;88;20130;-64
2021/10/29 00:04:36;;;;;;;;;;;;;;;9.44;100.00;100428.13;1672716;86;20128;-65
2021/10/29 00:07:03;;;;;;;;;;;;;;;9.41;100.00;100421.89;1635076;88;20080;-63
2021/10/29 00:09:32;;;;;;;;;;;;;;;9.40;100.00;100418.90;1635239;87;21058;-63
2021/10/29 00:11:57;;;;;;;;;;;;;;;9.40;100.00;100417.56;1635039;87;20123;-63
2021/10/29 00:14:25;;;;;;;;;;;;;;;9.40;100.00;100418.37;1673031;86;20733;-64
2021/10/29 00:16:52;;;;;;;;;;;;;;;9.39;100.00;100421.30;1634715;87;20088;-64
2021/10/29 00:19:18;;;;;;;;;;;;;;;9.38;100.00;100423.16;1674283;85;20419;-63
2021/10/29 00:21:45;;;;;;;;;;;;;;;9.38;100.00;100427.18;1682470;85;21132;-64
2021/10/29 00:24:13;;;;;;;;;;;;;;;9.35;100.00;100420.91;1698774;83;20099;-63
2021/10/29 00:26:39;;;;;;;;;;;;;;;9.33;100.00;100412.80;1680903;84;20447;-63
2021/10/29 00:29:06;;;;;;;;;;;;;;;9.29;100.00;100414.31;1665349;86;20121;-64
2021/10/29 00:31:32;;;;;;;;;;;;;;;9.28;100.00;100416.67;1665227;86;20098;-62
2021/10/29 00:33:58;;;;;;;;;;;;;;;9.27;100.00;100409.16;1664540;86;21069;-63
2021/10/29 00:36:25;;;;;;;;;;;;;;;9.26;100.00;100407.54;1663904;86;20153;-63
2021/10/29 00:38:51;;;;;;;;;;;;;;;9.26;100.00;100412.05;1662109;86;20407;-64
2021/10/29 00:41:17;;;;;;;;;;;;;;;9.25;100.00;100414.45;1696516;84;20115;-64
2021/10/29 00:43:44;;;;;;;;;;;;;;;9.24;100.00;100410.95;1677008;85;20148;-65
2021/10/29 00:46:10;;;;;;;;;;;;;;;9.22;100.00;100405.81;1633766;87;21144;-64
2021/10/29 00:48:36;;;;;;;;;;;;;;;9.23;100.00;100407.97;1677486;85;21678;-64
2021/10/29 00:51:03;;;;;;;;;;;;;;;9.24;100.00;100410.95;1697374;84;20595;-64
2021/10/29 00:53:31;;;;;;;;;;;;;;;9.21;100.00;100405.53;1674016;84;20110;-65
2021/10/29 00:55:57;;;;;;;;;;;;;;;9.20;100.00;100413.25;1691517;84;20080;-67
2021/10/29 00:58:24;;;;;;;;;;;;;;;9.18;100.00;100407.29;1677277;85;20579;-63
2021/10/29 01:00:51;;;;;;;;;;;;;;;9.19;100.00;100408.95;1697199;83;20095;-66
2021/10/29 01:03:17;;;;;;;;;;;;;;;9.20;100.00;100409.23;1698043;83;20099;-66
2021/10/29 01:05:43;;;;;;;;;;;;;;;9.20;100.00;100403.88;1697647;84;20399;-66
2021/10/29 01:08:10;;;;;;;;;;;;;;;9.20;100.00;100407.08;1692585;84;20080;-65
2021/10/29 01:10:37;;;;;;;;;;;;;;;9.19;100.00;100406.80;1678117;85;21156;-64
2021/10/29 01:13:04;;;;;;;;;;;;;;;9.19;100.00;100402.25;1635570;87;20124;-64
2021/10/29 01:15:32;;;;;;;;;;;;;;;9.18;100.00;100402.46;1640859;86;20117;-66
2021/10/29 01:17:59;;;;;;;;;;;;;;;9.18;100.00;100400.59;1664723;86;20074;-63
2021/10/29 01:20:26;;;;;;;;;;;;;;;9.17;100.00;100401.65;1622987;86;20108;-65
2021/10/29 01:22:53;;;;;;;;;;;;;;;9.17;100.00;100404.33;1618480;88;20694;-63
2021/10/29 01:25:20;;;;;;;;;;;;;;;9.16;100.00;100401.86;1623294;88;20139;-65
2021/10/29 01:27:46;;;;;;;;;;;;;;;9.16;100.00;100403.20;1638556;86;20174;-64
2021/10/29 01:30:12;;;;;;;;;;;;;;;9.14;100.00;100402.11;1635019;86;20126;-65
2021/10/29 01:32:40;;;;;;;;;;;;;;;9.12;100.00;100400.17;1641316;86;20102;-65
2021/10/29 01:35:08;;;;;;;;;;;;;;;9.12;100.00;100398.83;1628083;86;21145;-64
2021/10/29 01:37:40;;;;;;;;;;;;;;;9.13;100.00;100397.77;1618853;86;20140;-64
2021/10/29 01:40:09;;;;;;;;;;;;;;;9.12;100.00;100401.50;1653013;86;20071;-64
2021/10/29 01:42:36;;;;;;;;;;;;;;;9.13;100.00;100400.98;1654416;87;20392;-64
2021/10/29 01:45:03;;;;;;;;;;;;;;;9.13;100.00;100401.79;1654456;86;20111;-65
2021/10/29 01:47:30;;;;;;;;;;;;;;;9.12;100.00;100400.17;1651499;87;21142;-65
2021/10/29 01:49:57;;;;;;;;;;;;;;;9.14;100.00;100406.65;1650616;87;20070;-64
2021/10/29 01:52:23;;;;;;;;;;;;;;;9.11;100.00;100403.05;1650989;86;20115;-64
2021/10/29 01:54:50;;;;;;;;;;;;;;;9.12;100.00;100405.52;1624499;88;20085;-65
2021/10/29 01:57:16;;;;;;;;;;;;;;;9.10;100.00;100407.60;1623653;88;20104;-65
2021/10/29 01:59:42;;;;;;;;;;;;;;;9.08;100.00;100408.87;1623807;88;21787;-65
2021/10/29 02:02:08;;;;;;;;;;;;;;;9.02;100.00;100401.21;1623551;88;20144;-65
2021/10/29 02:04:35;;;;;;;;;;;;;;;8.98;100.00;100405.36;1623572;88;20165;-65
2021/10/29 02:07:03;;;;;;;;;;;;;;;8.94;100.00;100405.50;1619260;87;20077;-65
2021/10/29 02:09:30;;;;;;;;;;;;;;;8.92;100.00;100404.92;1626670;88;20113;-65
2021/10/29 02:11:56;;;;;;;;;;;;;;;8.92;100.00;100400.91;1623734;88;21183;-65
2021/10/29 02:14:22;;;;;;;;;;;;;;;8.92;100.00;100404.92;1623606;88;20456;-65
2021/10/29 02:16:49;;;;;;;;;;;;;;;8.91;100.00;100404.09;1623428;88;20101;-65
2021/10/29 02:19:16;;;;;;;;;;;;;;;8.91;100.00;100413.45;1625379;84;20540;-64
2021/10/29 02:21:42;;;;;;;;;;;;;;;8.91;100.00;100418.81;1670757;86;20512;-65
2021/10/29 02:24:09;;;;;;;;;;;;;;;8.91;100.00;100415.32;1670910;86;21149;-64
2021/10/29 02:26:36;;;;;;;;;;;;;;;8.91;100.00;100420.16;1670941;85;20122;-64
2021/10/29 02:29:03;;;;;;;;;;;;;;;8.91;100.00;100417.47;1670944;86;20073;-63
2021/10/29 02:31:30;;;;;;;;;;;;;;;8.92;100.00;100415.64;1670813;86;20104;-63
2021/10/29 02:33:56;;;;;;;;;;;;;;;8.89;100.00;100416.06;1670961;86;20081;-64
2021/10/29 02:36:23;;;;;;;;;;;;;;;8.90;100.00;100419.86;1670831;86;21141;-63
2021/10/29 02:38:49;;;;;;;;;;;;;;;8.89;100.00;100422.25;1653798;86;20092;-64
2021/10/29 02:41:16;;;;;;;;;;;;;;;8.90;100.00;100420.39;1633152;87;20183;-63
2021/10/29 02:43:45;;;;;;;;;;;;;;;8.88;100.00;100417.11;1632262;88;20080;-66
2021/10/29 02:46:12;;;;;;;;;;;;;;;8.88;100.00;100425.14;1658309;85;20089;-67
2021/10/29 02:48:38;;;;;;;;;;;;;;;8.88;100.00;100428.63;1666024;85;21141;-66
2021/10/29 02:51:04;;;;;;;;;;;;;;;8.87;100.00;100427.50;1666577;85;20078;-65
2021/10/29 02:53:32;;;;;;;;;;;;;;;8.87;100.00;100429.69;1660188;86;20136;-65
2021/10/29 02:55:58;;;;;;;;;;;;;;;8.88;100.00;100425.14;1660581;86;20119;-67
2021/10/29 02:58:31;;;;;;;;;;;;;;;8.86;100.00;100429.37;1660592;86;20141;-66
2021/10/29 03:00:57;;;;;;;;;;;;;;;8.86;100.00;100425.88;1660261;86;21135;-67
2021/10/29 03:03:24;;;;;;;;;;;;;;;8.87;100.00;100432.36;1660251;86;20157;-65
2021/10/29 03:05:50;;;;;;;;;;;;;;;8.86;100.00;100433.38;1660445;86;20150;-65
2021/10/29 03:08:16;;;;;;;;;;;;;;;8.88;100.00;100423.80;1660610;86;20166;-66
2021/10/29 03:10:45;;;;;;;;;;;;;;;8.88;100.00;100432.65;1658552;86;20141;-66
2021/10/29 03:13:11;;;;;;;;;;;;;;;8.87;100.00;100436.87;1660728;86;21231;-64
2021/10/29 03:15:38;;;;;;;;;;;;;;;8.88;100.00;100434.52;1660108;86;20439;-65
2021/10/29 03:18:05;;;;;;;;;;;;;;;8.87;100.00;100431.02;1660876;86;20118;-65
2021/10/29 03:20:31;;;;;;;;;;;;;;;8.86;100.00;100434.72;1654941;86;20095;-65
2021/10/29 03:23:19;;;;;;;;;;;;;;;8.85;100.00;100436.30;1646572;87;20440;-65
2021/10/29 03:25:45;;;;;;;;;;;;;;;8.84;100.00;100434.13;1646334;87;21101;-65
2021/10/29 03:28:12;;;;;;;;;;;;;;;8.82;100.00;100432.70;1646503;87;20194;-65
2021/10/29 03:30:39;;;;;;;;;;;;;;;8.82;100.00;100432.21;1646419;87;20098;-65
2021/10/29 03:33:06;;;;;;;;;;;;;;;8.83;100.00;100431.68;1645832;87;20086;-64
2021/10/29 03:35:32;;;;;;;;;;;;;;;8.82;100.00;100434.04;1646707;87;20098;-65
2021/10/29 03:40:59;;;;;;;;;;;;;;;8.75;100.00;100428.25;1646649;87;20470;-67
2021/10/29 03:43:31;;;;;;;;;;;;;;;8.73;100.00;100429.50;1646112;87;20086;-65
2021/10/29 03:46:16;;;;;;;;;;;;;;;8.70;100.00;100429.42;1646046;87;20091;-67
2021/10/29 03:48:31;;;;;;;;;;;;;;;8.70;100.00;100429.42;1641839;87;20095;-66
2021/10/29 03:51:36;;;;;;;;;;;;;;;8.70;100.00;100435.30;1646991;86;21222;-66
2021/10/29 03:53:32;;;;;;;;;;;;;;;8.69;100.00;100440.34;1636186;87;20174;-65
2021/10/29 03:55:54;;;;;;;;;;;;;;;8.66;100.00;100440.27;1646281;87;20151;-65
2021/10/29 03:58:20;;;;;;;;;;;;;;;8.64;100.00;100442.33;1646550;86;20350;-65
2021/10/29 04:00:47;;;;;;;;;;;;;;;8.62;100.00;100443.06;1646609;86;20400;-65
2021/10/29 04:03:19;;;;;;;;;;;;;;;8.61;100.00;100441.97;1646676;87;21734;-65
2021/10/29 04:05:46;;;;;;;;;;;;;;;8.60;100.00;100439.81;1646568;87;20420;-65
2021/10/29 04:08:13;;;;;;;;;;;;;;;8.60;100.00;100441.16;1645704;86;20154;-65
2021/10/29 04:10:42;;;;;;;;;;;;;;;8.61;100.00;100440.63;1645517;86;20111;-64
2021/10/29 04:13:10;;;;;;;;;;;;;;;8.61;100.00;100446.80;1642561;87;20177;-65
2021/10/29 04:15:37;;;;;;;;;;;;;;;8.61;100.00;100447.32;1646221;85;21142;-65
2021/10/29 04:18:04;;;;;;;;;;;;;;;8.60;100.00;100445.17;1646599;86;20115;-66
2021/10/29 04:20:30;;;;;;;;;;;;;;;8.61;100.00;100447.32;1646237;86;20459;-65
2021/10/29 04:22:57;;;;;;;;;;;;;;;8.62;100.00;100457.78;1646542;87;20083;-67
2021/10/29 04:25:23;;;;;;;;;;;;;;;8.60;100.00;100457.21;1645395;87;20147;-66
2021/10/29 04:27:57;;;;;;;;;;;;;;;8.58;100.00;100452.59;1646603;87;22335;-67
2021/10/29 04:30:20;;;;;;;;;;;;;;;8.59;100.00;100460.91;1645243;86;20142;-66
2021/10/29 04:32:46;;;;;;;;;;;;;;;8.59;100.00;100458.23;1632117;87;20088;-67
2021/10/29 04:35:13;;;;;;;;;;;;;;;8.59;100.00;100459.56;1646568;87;20443;-65
2021/10/29 04:37:40;;;;;;;;;;;;;;;8.59;100.00;100459.56;1646262;86;20102;-66
2021/10/29 04:40:07;;;;;;;;;;;;;;;8.59;100.00;100452.88;1646965;87;21702;-66
2021/10/29 04:42:35;;;;;;;;;;;;;;;8.59;100.00;100456.89;1645972;86;20151;-66
2021/10/29 04:45:02;;;;;;;;;;;;;;;8.60;100.00;100465.23;1646612;86;20102;-66
2021/10/29 04:47:29;;;;;;;;;;;;;;;8.59;100.00;100464.39;1646190;86;20154;-66
2021/10/29 04:49:55;;;;;;;;;;;;;;;8.57;100.00;100461.64;1646488;87;20098;-65
2021/10/29 04:52:22;;;;;;;;;;;;;;;8.55;100.00;100459.20;1646496;87;21064;-66
2021/10/29 04:54:48;;;;;;;;;;;;;;;8.56;100.00;100462.16;1646464;87;20423;-64
2021/10/29 04:57:14;;;;;;;;;;;;;;;8.57;100.00;100461.64;1646621;87;20162;-64
2021/10/29 04:59:41;;;;;;;;;;;;;;;8.57;100.00;100471.00;1646100;87;20162;-65
2021/10/29 05:02:07;;;;;;;;;;;;;;;8.57;100.00;100469.17;1646601;87;20095;-65
2021/10/29 05:04:33;;;;;;;;;;;;;;;8.56;100.00;100473.39;1646078;86;21155;-63
2021/10/29 05:06:59;;;;;;;;;;;;;;;8.56;100.00;100471.53;1640622;86;20404;-64
2021/10/29 05:09:26;;;;;;;;;;;;;;;8.57;100.00;100474.52;1643598;86;20157;-64
2021/10/29 05:11:53;;;;;;;;;;;;;;;8.59;100.00;100479.64;1646617;85;20175;-66
2021/10/29 05:14:19;;;;;;;;;;;;;;;8.61;100.00;100474.89;1629010;86;20113;-66
2021/10/29 05:16:50;;;;;;;;;;;;;;;8.62;100.00;100480.53;1657019;85;20127;-66
2021/10/29 05:19:16;;;;;;;;;;;;;;;8.65;100.00;100484.63;1641896;86;20151;-65
2021/10/29 05:21:43;;;;;;;;;;;;;;;8.67;100.00;100477.20;1675842;85;20534;-66
2021/10/29 05:24:09;;;;;;;;;;;;;;;8.69;100.00;100485.84;1642279;87;20403;-64
2021/10/29 05:26:37;;;;;;;;;;;;;;;8.71;100.00;100486.45;1650806;85;20070;-65
2021/10/29 05:29:04;;;;;;;;;;;;;;;8.74;100.00;100481.46;1655377;85;21753;-65
2021/10/29 05:31:30;;;;;;;;;;;;;;;8.79;100.00;100482.15;1697427;83;20096;-65
2021/10/29 05:33:57;;;;;;;;;;;;;;;8.80;100.00;100480.60;1679988;83;20126;-64
2021/10/29 05:36:24;;;;;;;;;;;;;;;8.83;100.00;100493.25;1678103;83;20297;-64
2021/10/29 05:38:51;;;;;;;;;;;;;;;8.84;100.00;100491.67;1643437;87;20124;-64
2021/10/29 05:41:19;;;;;;;;;;;;;;;8.88;100.00;100497.42;1665298;86;20129;-65
2021/10/29 05:43:45;;;;;;;;;;;;;;;8.89;100.00;100495.03;1684610;84;20181;-64
2021/10/29 05:46:12;;;;;;;;;;;;;;;8.91;100.00;100497.80;1696095;84;20080;-63
2021/10/29 05:48:39;;;;;;;;;;;;;;;8.96;100.00;100502.50;1696380;84;20099;-64
2021/10/29 05:51:13;;;;;;;;;;;;;;;8.97;100.00;100500.14;1655905;85;20145;-64
2021/10/29 05:56:17;;;;;;;;;;;;;;;9.04;100.00;100508.93;1642137;86;20420;-65
2021/10/29 05:58:44;;;;;;;;;;;;;;;9.06;100.00;100505.48;1642434;86;20228;-65
2021/10/29 06:01:11;;;;;;;;;;;;;;;9.12;100.00;100506.48;1690455;83;20112;-66
2021/10/29 06:03:37;;;;;;;;;;;;;;;9.19;100.00;100516.09;1672194;84;20157;-66
2021/10/29 06:06:03;;;;;;;;;;;;;;;9.25;100.00;100510.89;1677285;84;21155;-64
2021/10/29 06:08:31;;;;;;;;;;;;;;;9.29;100.00;100515.59;1687564;85;20091;-64
2021/10/29 06:10:57;;;;;;;;;;;;;;;9.33;100.00;100514.08;1641920;87;20174;-65
2021/10/29 06:13:25;;;;;;;;;;;;;;;9.38;100.00;100516.09;1685781;83;20146;-64
2021/10/29 06:15:52;;;;;;;;;;;;;;;9.43;100.00;100518.43;1686739;83;20429;-64
2021/10/29 06:18:26;;;;;;;;;;;;;;;9.49;100.00;100522.07;1687796;83;21146;-66
2021/10/29 06:20:54;;;;;;;;;;;;;;;9.58;100.00;100522.61;1679724;83;20121;-64
2021/10/29 06:23:25;;;;;;;;;;;;;;;9.68;100.00;100521.56;1670543;85;20404;-65
2021/10/29 06:25:55;;;;;;;;;;;;;;;9.79;100.00;100528.02;1669376;85;20100;-65
2021/10/29 06:28:29;;;;;;;;;;;;;;;9.88;100.00;100530.70;1685417;84;20425;-65
2021/10/29 06:30:49;;;;;;;;;;;;;;;9.91;100.00;100530.24;1678051;84;21147;-64
2021/10/29 06:33:19;;;;;;;;;;;;;;;9.94;100.00;100537.83;1680447;84;20111;-64
2021/10/29 06:35:45;;;;;;;;;;;;;;;9.99;100.00;100535.81;1658687;84;20144;-63
2021/10/29 06:38:12;;;;;;;;;;;;;;;10.06;100.00;100539.23;1670424;84;20119;-63
2021/10/29 06:40:42;;;;;;;;;;;;;;;10.11;100.00;100538.56;1688253;84;20172;-63
2021/10/29 06:43:12;;;;;;;;;;;;;;;10.19;100.00;100537.73;1693762;84;21229;-63
2021/10/29 06:59:16;;;;;;;;;;;;;;;10.60;100.00;100538.81;1679277;84;20100;-63
2021/10/29 07:01:50;;;;;;;;;;;;;;;10.67;100.00;100542.75;1678740;85;20132;-65
2021/10/29 07:40:06;;;;;;;;;;;;;;;11.76;100.00;100561.95;1665806;84;20113;-65
2021/10/29 07:43:10;;;;;;;;;;;;;;;11.77;100.00;100566.26;1669860;83;20134;-63
2021/10/29 07:45:10;;;;;;;;;;;;;;;11.81;100.00;100566.63;1700664;83;20166;-64
2021/10/29 07:47:40;;;;;;;;;;;;;;;11.94;100.00;100566.91;1692969;84;20101;-65
2021/10/29 07:50:08;;;;;;;;;;;;;;;11.98;100.00;100566.73;1706058;83;21693;-64
2021/10/29 07:52:38;;;;;;;;;;;;;;;11.99;100.00;100558.94;1679868;85;20703;-63
2021/10/29 07:55:06;;;;;;;;;;;;;;;12.09;100.00;100565.86;1679782;85;20119;-64
2021/10/29 07:57:33;;;;;;;;;;;;;;;12.28;100.00;100566.51;1679790;85;20104;-63
2021/10/29 08:00:00;;;;;;;;;;;;;;;12.43;100.00;100569.48;1696171;84;20132;-62
2021/10/29 08:02:27;;;;;;;;;;;;;;;12.51;100.00;100571.50;1709588;84;21149;-64
2021/10/29 08:04:53;;;;;;;;;;;;;;;12.61;100.00;100562.25;1709167;84;20105;-63
2021/10/29 08:07:20;;;;;;;;;;;;;;;12.70;100.00;100565.38;1700646;84;20110;-63
2021/10/29 08:09:46;;;;;;;;;;;;;;;12.77;100.00;100563.34;1700490;84;20094;-63
2021/10/29 08:12:15;;;;;;;;;;;;;;;12.83;100.00;100565.86;1700256;84;20114;-63
2021/10/29 08:14:42;;;;;;;;;;;;;;;12.90;100.00;100571.09;1700377;84;21146;-66
2021/10/29 08:17:09;;;;;;;;;;;;;;;12.99;100.00;100568.83;1700262;84;20098;-65
2021/10/29 08:19:36;;;;;;;;;;;;;;;13.09;100.00;100572.49;1676454;85;20183;-63
2021/10/29 08:22:04;;;;;;;;;;;;;;;13.22;100.00;100569.17;1675359;83;20145;-62
2021/10/29 08:24:32;;;;;;;;;;;;;;;13.32;100.00;100573.41;1670495;85;20430;-62
2021/10/29 08:27:00;;;;;;;;;;;;;;;13.45;100.00;100573.08;1669846;85;21165;-62
2021/10/29 08:29:43;;;;;;;;;;;;;;;13.52;100.00;100568.83;1671054;85;20461;-63
2021/10/29 08:32:10;;;;;;;;;;;;;;;13.50;100.00;100576.37;1642438;86;20714;-63
2021/10/29 08:34:37;;;;;;;;;;;;;;;13.52;100.00;100572.87;1647492;85;20525;-64
2021/10/29 08:37:06;;;;;;;;;;;;;;;13.53;100.00;100575.06;1622812;85;20357;-64
2021/10/29 08:39:32;;;;;;;;;;;;;;;13.71;100.00;100586.91;1628663;87;21137;-63
2021/10/29 08:42:00;;;;;;;;;;;;;;;13.99;100.00;100585.09;1650067;87;20126;-64
2021/10/29 08:44:26;;;;;;;;;;;;;;;14.15;100.00;100589.08;1647904;86;20114;-63
2021/10/29 08:46:53;;;;;;;;;;;;;;;14.14;100.00;100585.30;1618068;87;20217;-63
2021/10/29 08:49:20;;;;;;;;;;;;;;;14.12;100.00;100590.13;1649588;86;20226;-63
2021/10/29 08:51:46;;;;;;;;;;;;;;;14.28;100.00;100586.55;1591411;89;21121;-61
2021/10/29 08:54:13;;;;;;;;;;;;;;;14.31;100.00;100597.38;1599420;89;20104;-62
2021/10/29 08:56:40;;;;;;;;;;;;;;;14.42;100.00;100594.25;1600166;89;20152;-63
2021/10/29 08:59:21;;;;;;;;;;;;;;;14.52;100.00;100591.11;1623088;88;20141;-64
2021/10/29 09:02:02;;;;;;;;;;;;;;;14.42;100.00;100594.25;1626046;86;20369;-64
2021/10/29 09:07:18;;;;;;;;;;;;;;;14.36;100.00;100595.55;1655365;86;20124;-63
2021/10/29 09:10:01;;;;;;;;;;;;;;;14.61;100.00;100596.91;1654470;86;20446;-64
2021/10/29 09:31:27;;;;;;;;;;;;;;;15.28;100.00;100594.23;1710012;83;21120;-65
2021/10/29 09:34:11;;;;;;;;;;;;;;;15.08;100.00;100587.33;1662118;85;20460;-64
2021/10/29 09:36:40;;;;;;;;;;;;;;;15.03;100.00;100584.04;1655404;86;20403;-66
2021/10/29 09:39:16;;;;;;;;;;;;;;;14.87;100.00;100583.63;1655762;86;20106;-64
2021/10/29 09:42:01;;;;;;;;;;;;;;;14.84;100.00;100584.14;1654223;85;20149;-64
2021/10/29 09:44:37;;;;;;;;;;;;;;;14.83;100.00;100583.34;1657996;85;21131;-63
2021/10/29 09:47:04;;;;;;;;;;;;;;;14.77;100.00;100575.73;1683315;85;20160;-63
2021/10/29 09:49:50;;;;;;;;;;;;;;;14.89;100.00;100579.59;1683327;85;20103;-63
2021/10/29 09:57:24;;;;;;;;;;;;;;;15.29;93.05;100584.25;1689857;85;21130;-64
2021/10/29 09:59:52;;;;;;;;;;;;;;;15.32;95.38;100581.83;1690423;85;20166;-63
2021/10/29 10:02:21;;;;;;;;;;;;;;;15.24;94.51;100585.02;1689113;85;20076;-63
2021/10/29 10:04:51;;;;;;;;;;;;;;;15.20;95.70;100585.26;1690419;85;20111;-63
2021/10/29 10:07:22;;;;;;;;;;;;;;;15.32;95.85;100583.18;1690195;85;20112;-62
2021/10/29 10:10:00;;;;;;;;;;;;;;;15.64;94.37;100583.11;1690268;85;21136;-62
2021/10/29 10:12:33;;;;;;;;;;;;;;;16.12;92.04;100580.39;1690575;85;20420;-64
2021/10/29 10:15:04;;;;;;;;;;;;;;;17.26;86.85;100587.05;1690326;85;20171;-63
2021/10/29 10:17:56;;;;;;;;;;;;;;;18.08;77.99;100590.12;1614705;88;20225;-63
2021/10/29 10:20:24;;;;;;;;;;;;;;;18.43;73.12;100587.78;1646099;86;20413;-63
2021/10/29 10:22:51;;;;;;;;;;;;;;;19.08;69.68;100590.88;1624758;87;21173;-63
2021/10/29 10:25:47;;;;;;;;;;;;;;;19.59;63.71;100587.67;1646662;87;20100;-64
2021/10/29 10:40:14;;;;;;;;;;;;;;;18.95;59.63;100593.16;1618661;88;20875;-64
2021/10/29 10:41:41;;;;;;;;;;;;;;;15.65;75.34;100576.63;1640646;87;20162;-68
2021/10/29 10:44:59;;;;;;;;;;;;;;;15.42;77.71;100577.83;1636562;86;20160;-66
2021/10/29 10:46:53;;;;;;;;;;;;;;;15.18;79.55;100567.12;1601110;87;20387;-66
2021/10/29 10:49:39;;;;;;;;;;;;;;;14.94;81.56;100577.47;1597518;87;21144;-66
2021/10/29 10:52:20;;;;;;;;;;;;;;;14.82;82.85;100570.91;1591754;88;21433;-65
2021/10/29 10:54:49;;;;;;;;;;;;;;;14.89;83.08;100575.53;1630241;85;20135;-67
2021/10/29 10:59:57;;;;;;;;;;;;;;;14.96;84.18;100580.19;1649377;85;20192;-65
2021/10/29 11:05:19;;;;;;;;;;;;;;;15.05;83.58;100572.98;1654278;85;20148;-64
2021/10/29 11:10:23;;;;;;;;;;;;;;;14.89;84.68;100574.19;1679216;83;20319;-65
2021/10/29 11:12:55;;;;;;;;;;;;;;;14.89;83.84;100566.62;1633161;85;20171;-64
2021/10/29 11:15:25;;;;;;;;;;;;;;;14.90;84.04;100575.02;1642114;85;21092;-63
2021/10/29 11:17:59;;;;;;;;;;;;;;;14.99;83.82;100574.80;1656632;85;20177;-65
2021/10/29 11:20:49;;;;;;;;;;;;;;;14.91;82.43;100572.59;1649134;85;20415;-64
2021/10/29 11:23:22;;;;;;;;;;;;;;;14.79;82.57;100574.09;1654277;87;20106;-63
2021/10/29 11:26:07;;;;;;;;;;;;;;;14.65;82.25;100576.42;1654494;86;20165;-64
2021/10/29 11:28:36;;;;;;;;;;;;;;;14.56;83.62;100576.59;1676088;84;22242;-64
2021/10/29 11:31:06;;;;;;;;;;;;;;;14.53;83.36;100571.68;1665282;86;20144;-63
2021/10/29 11:33:38;;;;;;;;;;;;;;;14.53;84.13;100573.03;1671313;85;20493;-64
2021/10/29 11:36:09;;;;;;;;;;;;;;;14.64;83.85;100573.42;1678182;84;20127;-65
2021/10/29 11:38:38;;;;;;;;;;;;;;;15.31;81.46;100572.61;1676732;85;20134;-64
2021/10/29 11:41:13;;;;;;;;;;;;;;;15.70;79.63;100573.69;1676535;85;21190;-64
2021/10/29 11:44:05;;;;;;;;;;;;;;;15.52;78.18;100568.96;1677432;84;20085;-64
2021/10/29 11:46:32;;;;;;;;;;;;;;;15.42;78.58;100568.91;1637805;84;20446;-64
2021/10/29 11:49:05;;;;;;;;;;;;;;;15.32;79.45;100571.55;1680761;83;20129;-63
2021/10/29 11:51:32;;;;;;;;;;;;;;;15.26;79.00;100568.52;1681585;83;20185;-64
2021/10/29 11:54:11;;;;;;;;;;;;;;;15.19;79.77;100574.98;1684166;85;21195;-63
2021/10/29 11:56:41;;;;;;;;;;;;;;;15.15;79.47;100573.86;1683257;85;20126;-63
2021/10/29 12:07:18;;;;;;;;;;;;;;;14.68;82.21;100565.64;1680725;84;21170;-65
2021/10/29 12:09:52;;;;;;;;;;;;;;;14.70;82.50;100568.36;1680145;85;20178;-65
2021/10/29 12:12:22;;;;;;;;;;;;;;;14.66;82.33;100561.83;1679659;83;20176;-65
2021/10/29 12:14:50;;;;;;;;;;;;;;;14.62;83.01;100566.11;1703234;83;20177;-64
2021/10/29 12:20:06;;;;;;;;;;;;;;;14.54;83.60;100557.93;1684645;85;21864;-65
2021/10/29 12:22:42;;;;;;;;;;;;;;;14.49;83.79;100556.50;1685125;83;20427;-66
2021/10/29 12:28:46;;;;;;;;;;;;;;;14.33;84.87;100548.80;1719027;83;20085;-65
2021/10/29 12:34:00;;;;;;;;;;;;;;;14.33;84.63;100539.85;1688506;83;21162;-66
2021/10/29 13:03:55;;;;;;;;;;;;;;;14.07;86.58;100533.38;1717529;82;20188;-67
2021/10/29 13:06:36;;;;;;;;;;;;;;;14.05;87.17;100533.62;1722221;82;20123;-68
2021/10/29 13:09:19;;;;;;;;;;;;;;;14.05;87.26;100530.92;1718584;82;20101;-67
2021/10/29 13:11:59;;;;;;;;;;;;;;;14.02;87.45;100531.98;1717786;82;20760;-68
2021/10/29 13:14:31;;;;;;;;;;;;;;;13.94;87.69;100536.75;1695186;83;21143;-68
2021/10/29 13:16:56;;;;;;;;;;;;;;;13.89;88.21;100536.70;1712483;82;20166;-67
2021/10/29 13:19:53;;;;;;;;;;;;;;;13.88;88.37;100539.09;1713663;83;20142;-67
2021/10/29 13:36:10;;;;;;;;;;;;;;;13.81;89.10;100533.06;1706721;82;20182;-67
2021/10/29 13:54:47;;;;;;;;;;;;;;;13.47;91.57;100522.91;1709397;83;21733;-65
2021/10/29 14:30:04;;;;;;;;;;;;;;;11.91;100.00;100501.48;1649060;85;20193;-65
2021/10/29 14:35:24;;;;;;;;;;;;;;;11.62;100.00;100501.94;1649811;85;21071;-64
2021/10/29 14:38:06;;;;;;;;;;;;;;;11.47;100.00;100501.91;1642674;86;20217;-66
2021/10/29 14:43:08;;;;;;;;;;;;;;;11.33;100.00;100495.95;1624647;86;20137;-65
2021/10/29 14:45:42;;;;;;;;;;;;;;;11.22;100.00;100497.30;1650867;85;20178;-64
2021/10/29 14:48:18;;;;;;;;;;;;;;;11.08;100.00;100494.86;1649449;85;21147;-66
2021/10/29 14:53:33;;;;;;;;;;;;;;;10.93;100.00;100495.33;1587531;89;20464;-63
2021/10/29 15:25:33;;;;;;;;;;;;;;;10.05;100.00;100494.16;1590984;88;20126;-65
2021/10/29 15:28:19;;;;;;;;;;;;;;;9.92;100.00;100501.55;1595714;88;21159;-65
2021/10/29 15:30:50;;;;;;;;;;;;;;;9.79;100.00;100497.19;1657680;84;20433;-66
2021/10/29 15:33:21;;;;;;;;;;;;;;;9.69;100.00;100499.59;1670939;84;20143;-65
2021/10/29 15:41:18;;;;;;;;;;;;;;;9.35;100.00;100495.92;1656721;85;21248;-64
2021/10/29 15:46:22;;;;;;;;;;;;;;;9.24;100.00;100496.68;1658201;85;20126;-66
2021/10/29 15:48:56;;;;;;;;;;;;;;;9.21;100.00;100494.42;1640160;86;20195;-65
2021/10/29 15:51:21;;;;;;;;;;;;;;;9.12;100.00;100497.11;1642250;87;20466;-64
2021/10/29 15:53:47;;;;;;;;;;;;;;;9.06;100.00;100496.11;1634294;87;21729;-64
2021/10/29 15:56:29;;;;;;;;;;;;;;;8.99;100.00;100496.20;1644108;86;20110;-64
2021/10/29 16:01:27;;;;;;;;;;;;;;;9.00;100.00;100506.38;1642224;87;20181;-64
2021/10/29 16:17:36;;;;;;;;;;;;;;;8.89;100.00;100501.23;1625438;88;20166;-66
2021/10/29 16:20:04;;;;;;;;;;;;;;;8.90;100.00;100502.86;1628863;86;21207;-66
2021/10/29 16:22:35;;;;;;;;;;;;;;;8.86;100.00;100505.67;1629669;87;20172;-66
2021/10/29 16:27:43;;;;;;;;;;;;;;;8.78;100.00;100508.63;1622171;86;20344;-66
2021/10/29 16:30:05;;;;;;;;;;;;;;;8.72;100.00;100503.64;1623741;86;20162;-65
2021/10/29 16:35:16;;;;;;;;;;;;;;;8.69;100.00;100508.59;1623610;88;20171;-66
2021/10/29 16:37:44;;;;;;;;;;;;;;;8.72;100.00;100513.01;1625439;86;20112;-65
2021/10/29 16:40:11;;;;;;;;;;;;;;;8.75;100.00;100507.73;1624529;87;20189;-66
2021/10/29 16:42:38;;;;;;;;;;;;;;;8.73;100.00;100511.95;1626107;87;20218;-66
2021/10/29 16:45:08;;;;;;;;;;;;;;;8.68;100.00;100513.12;1624983;88;21100;-66
2021/10/29 16:47:35;;;;;;;;;;;;;;;8.67;100.00;100512.84;1645196;85;20209;-66
2021/10/29 16:50:40;;;;;;;;;;;;;;;8.57;100.00;100518.67;1625823;87;20175;-65
2021/10/29 16:53:08;;;;;;;;;;;;;;;8.48;100.00;100516.48;1668506;84;20175;-65
2021/10/29 16:55:34;;;;;;;;;;;;;;;8.46;100.00;100514.53;1673509;85;20176;-66
2021/10/29 16:58:00;;;;;;;;;;;;;;;8.38;100.00;100513.72;1672745;85;21754;-68
2021/10/29 17:00:27;;;;;;;;;;;;;;;8.31;100.00;100518.30;1669818;84;20118;-66
2021/10/29 17:02:53;;;;;;;;;;;;;;;8.23;100.00;100516.38;1674937;84;20234;-66
2021/10/29 17:05:20;;;;;;;;;;;;;;;8.16;100.00;100513.23;1654553;86;20713;-67
2021/10/29 17:07:47;;;;;;;;;;;;;;;8.12;100.00;100513.35;1672863;84;20128;-67
2021/10/29 17:10:50;;;;;;;;;;;;;;;8.08;100.00;100516.66;1672170;84;21120;-69
2021/10/29 17:13:18;;;;;;;;;;;;;;;8.04;100.00;100515.47;1657219;84;20166;-65
2021/10/29 17:15:44;;;;;;;;;;;;;;;7.85;100.00;100522.02;1681942;84;20106;-65
2021/10/29 17:18:11;;;;;;;;;;;;;;;7.72;100.00;100520.22;1674254;85;20094;-66
2021/10/29 17:20:37;;;;;;;;;;;;;;;7.68;100.00;100518.99;1681443;84;20102;-62
2021/10/29 17:23:04;;;;;;;;;;;;;;;7.68;100.00;100519.52;1676361;84;21068;-65